»·PEaware :: N7375Q KRAL-KSAN

N7375Q :: KRAL-KSAN

FLIGHT INFORMATION

Flight Status: Arrived
Operator: Privately registered:
United States
More flights under this callsign
Pilot: Ion I. (24133)
Aircraft: SOCATA TBM-900
(TBM9)
More flights by this aircraft type
Origin: KRAL Riverside Mun
United States
Destination: KSAN San Diego Intl-Lindbergh
United States
More flights between these airports :: More routes between these airports
Route: +RAL1 PDZ V186 HAILE V66 MZB
File this flight plan on PilotEdge
Remarks:
Altitude:
(Current/Filed)
11,000ft
Speed:
(Current/Filed)
250kts
Departed: 27-Jul-20 01:08 PM
Arrived: 27-Jul-20 01:42 PM
Distance/Time
Traveled:
74nm/0:34
Distance/Time
To Go:
Arrived

Flight Plot

Page will automatically refresh every two minutes.


Map Options




Map Legend


Flown Route
Filed Route
Departure Airport
Arrival Airport
Navaid (VOR, NDB)
Fix

Horizontal Profiles

Position Reports

Time Latitude Longitude Heading Altitude Ground
Speed
27-Jul-20 12:44 33.950701 -117.442757 106 780ft 0kts
27-Jul-20 12:45 33.950701 -117.442757 106 780ft 0kts
27-Jul-20 12:46 33.950701 -117.442757 106 780ft 0kts
27-Jul-20 12:47 33.950701 -117.442757 106 780ft 0kts
27-Jul-20 12:48 33.950701 -117.442757 106 780ft 0kts
27-Jul-20 12:49 33.950701 -117.442757 106 780ft 0kts
27-Jul-20 12:50 33.950701 -117.442757 106 780ft 0kts
27-Jul-20 12:51 33.950701 -117.442757 106 780ft 0kts
27-Jul-20 12:52 33.950701 -117.442757 106 780ft 0kts
27-Jul-20 12:53 33.950701 -117.442757 106 780ft 0kts
27-Jul-20 12:54 33.950701 -117.442757 106 780ft 0kts
27-Jul-20 12:55 33.950701 -117.442757 106 780ft 0kts
27-Jul-20 12:56 33.950701 -117.442757 106 780ft 0kts
27-Jul-20 12:57 33.950701 -117.442757 106 780ft 0kts
27-Jul-20 12:58 33.950701 -117.442757 106 780ft 0kts
27-Jul-20 12:59 33.950701 -117.442757 106 780ft 0kts
27-Jul-20 13:00 33.950701 -117.442757 106 780ft 0kts
27-Jul-20 13:01 33.950701 -117.442757 106 780ft 0kts
27-Jul-20 13:02 33.950678 -117.442654 102 780ft 1kts
27-Jul-20 13:03 33.950547 -117.441253 118 780ft 6kts
27-Jul-20 13:04 33.950582 -117.438866 104 780ft 9kts
27-Jul-20 13:05 33.949854 -117.435100 93 780ft 6kts
27-Jul-20 13:06 33.949969 -117.434953 10 780ft 0kts
27-Jul-20 13:07 33.951241 -117.438326 283 780ft 79kts
27-Jul-20 13:08 33.956644 -117.472114 277 2177ft 110kts
27-Jul-20 13:09 33.963578 -117.512728 280 3615ft 143kts
27-Jul-20 13:10 33.965096 -117.563231 219 5732ft 168kts
27-Jul-20 13:11 33.922960 -117.562496 113 7834ft 173kts
27-Jul-20 13:12 33.899606 -117.514334 144 9698ft 180kts
27-Jul-20 13:13 33.857709 -117.479089 146 11023ft 208kts
27-Jul-20 13:14 33.804865 -117.434817 146 11001ft 245kts
27-Jul-20 13:15 33.747824 -117.387115 146 10996ft 252kts
27-Jul-20 13:16 33.689883 -117.338734 146 10995ft 253kts
27-Jul-20 13:17 33.632004 -117.290485 146 10997ft 253kts
27-Jul-20 13:18 33.573966 -117.242188 146 10995ft 253kts
27-Jul-20 13:19 33.515929 -117.193971 146 11003ft 253kts
27-Jul-20 13:20 33.473191 -117.159978 161 10974ft 252kts
27-Jul-20 13:21 33.404465 -117.146038 170 10991ft 251kts
27-Jul-20 13:22 33.338947 -117.118269 151 10590ft 265kts
27-Jul-20 13:23 33.274626 -117.075620 151 9084ft 264kts
27-Jul-20 13:24 33.210094 -117.033787 151 7578ft 264kts
27-Jul-20 13:25 33.147313 -116.993112 151 6981ft 249kts
27-Jul-20 13:26 33.086792 -116.953842 151 6981ft 247kts
27-Jul-20 13:27 33.026082 -116.914377 151 6984ft 247kts
27-Jul-20 13:28 32.965883 -116.875166 151 6989ft 247kts
27-Jul-20 13:29 32.905343 -116.835630 151 6993ft 248kts
27-Jul-20 13:30 32.844283 -116.795831 153 6985ft 249kts
27-Jul-20 13:31 32.773551 -116.807389 191 6150ft 270kts
27-Jul-20 13:32 32.699634 -116.826108 191 4981ft 261kts
27-Jul-20 13:33 32.660860 -116.876287 270 4988ft 235kts
27-Jul-20 13:34 32.677516 -116.955047 286 3814ft 235kts
27-Jul-20 13:35 32.691895 -117.014592 285 2803ft 161kts
27-Jul-20 13:36 32.702241 -117.060951 286 2440ft 149kts
27-Jul-20 13:37 32.711869 -117.099509 284 1714ft 99kts
27-Jul-20 13:38 32.718492 -117.127926 287 1037ft 88kts
27-Jul-20 13:39 32.725160 -117.155250 287 539ft 85kts
27-Jul-20 13:40 32.731718 -117.182138 286 33ft 81kts
27-Jul-20 13:41 32.734718 -117.189708 106 19ft 13kts
27-Jul-20 13:42 32.733617 -117.185151 107 17ft 16kts
27-Jul-20 13:43 32.732159 -117.179180 106 17ft 20kts
27-Jul-20 13:44 32.732082 -117.176908 201 22ft 0kts
27-Jul-20 13:45 32.732082 -117.176908 201 22ft 0kts

Navigation Log

Ident Type
Flight plan parsing failed, navigation log unavailable